Aquarius Ace — 3FHB8 — position and weather

sailwx.info

Track history (hours):
 
Tides and Currents Weather Stations Pressure Air Temp Water Temp Dewpoint Dewpoint Depression Visibility Wind Speed Wind Dir Waves Ship Positions

Aquarius Ace

Last reported at 2018-May-24 14:00 UTC. Time now 2018-May-24 14:07 UTC.
Position N 51°46' E 001°49'.

Length 174 m; draft 6.9 m.

Type: Cargo ship. MMSI: 354123000.

Date/timePositionNaut miles runAvg speedWind from/ knotsBaromVisibWave heightAir tempDewpointWater temp
2018-May-24 14:00N 51°46' E 001°49'815.6
2018-May-24 13:30N 51°38' E 001°49'24 1.8
2018-May-23 23:59N 51°29' E 001°12'714.1
2018-May-23 23:30N 51°28' E 001°23'510.1
2018-May-23 23:00N 51°25' E 001°29'2 4.6
2018-May-23 22:30N 51°23' E 001°32'3 6.8
2018-May-23 22:00N 51°21' E 001°35'3 6.6
2018-May-23 21:30N 51°18' E 001°37'815.7
2018-May-23 21:01N 51°10' E 001°36'713.2
2018-May-23 20:30N 51°03' E 001°37'816.6
2018-May-23 20:00N 50°58' E 001°28'916.3
2018-May-23 19:27N 50°49' E 001°23'815.5
2018-May-23 18:57N 50°42' E 001°18'915.8
2018-May-23 18:23N 50°36' E 001°08'615.5
2018-May-23 18:00N 50°33' E 000°60'815.6
2018-May-23 17:31N 50°30' E 000°48'816.0
2018-May-23 16:59N 50°28' E 000°36'816.5
2018-May-23 16:29N 50°26' E 000°23'816.8
2018-May-23 16:00N 50°24' E 000°11'816.9
2018-May-23 15:30N 50°21' W 000°02'917.4
2018-May-23 15:01N 50°19' W 000°15'917.6
2018-May-23 14:29N 50°16' W 000°29'917.9
2018-May-23 14:00N 50°13' W 000°41'917.7
2018-May-23 13:30N 50°11' W 000°55'917.6
2018-May-23 13:01N 50°09' W 001°08'917.2
2018-May-23 12:30N 50°07' W 001°21'816.9
2018-May-23 12:01N 50°05' W 001°34'816.4
2018-May-23 11:30N 50°03' W 001°46'816.0
2018-May-23 11:00N 50°00' W 001°58'815.5
2018-May-23 10:30N 49°58' W 002°09'814.9
2018-May-23 09:57N 49°55' W 002°22'614.3
2018-May-23 09:30N 49°53' W 002°31'914.2
2018-May-23 08:52N 49°51' W 002°45'614.3
2018-May-23 08:27N 49°50' W 002°54'714.3
2018-May-23 07:59N 49°47' W 003°03'714.6
2018-May-23 07:30N 49°43' W 003°12'814.8
2018-May-23 06:59N 49°39' W 003°22'914.9
2018-May-23 06:21N 49°34' W 003°35'1514.9
2018-May-23 05:21N 49°27' W 003°54'2414.8
2018-May-23 03:42N 49°14' W 004°27'314.7
2018-May-23 03:30N 49°13' W 004°30'714.7
2018-May-23 03:00N 49°09' W 004°40'714.6
2018-May-23 02:30N 49°05' W 004°49'714.8
2018-May-23 02:00N 49°01' W 004°59'815.2
2018-May-23 01:30N 48°57' W 005°09'815.3
2018-May-23 01:00N 48°53' W 005°18'815.4
2018-May-23 00:30N 48°48' W 005°28'815.3
2018-May-23 00:00N 48°43' W 005°37'815.5
2018-May-22 23:31N 48°37' W 005°42'815.7
2018-May-22 23:00N 48°29' W 005°48'916.3
2018-May-22 22:28N 48°22' W 005°54'916.3
2018-May-22 21:56N 48°14' W 006°00'716.3
2018-May-22 21:30N 48°08' W 006°05'1016.4
2018-May-22 20:52N 47°59' W 006°13'52516.3
2018-May-21 12:36N 39°38' W 009°50'617.1
2018-May-21 12:17N 39°32' W 009°50'517.2
2018-May-21 12:00N 39°27' W 009°51'816.9
2018-May-21 11:30N 39°19' W 009°51'816.5
2018-May-21 11:00N 39°11' W 009°51'816.5
2018-May-21 10:30N 39°02' W 009°51'816.6
2018-May-21 10:00N 38°54' W 009°51'816.4
2018-May-21 09:30N 38°46' W 009°51'816.5
2018-May-21 09:00N 38°38' W 009°49'816.8
2018-May-21 08:31N 38°30' W 009°47'816.9
2018-May-21 08:00N 38°21' W 009°44'816.7
2018-May-21 07:30N 38°13' W 009°42'816.9
2018-May-21 07:00N 38°05' W 009°39'816.7
2018-May-21 06:30N 37°57' W 009°36'816.8
2018-May-21 06:00N 37°49' W 009°34'816.6
2018-May-21 05:30N 37°41' W 009°32'1016.6
2018-May-21 04:53N 37°31' W 009°29'616.3
2018-May-21 04:29N 37°24' W 009°27'816.3
2018-May-21 03:58N 37°16' W 009°25'716.1
2018-May-21 03:30N 37°09' W 009°23'816.2
2018-May-21 03:00N 37°01' W 009°20'915.9
2018-May-21 02:26N 36°52' W 009°17'716.1
2018-May-21 02:00N 36°47' W 009°11'1016.0
2018-May-21 01:21N 36°42' W 008°59'616.3
2018-May-21 01:00N 36°41' W 008°53'916.4
2018-May-21 00:26N 36°38' W 008°42'716.5
2018-May-20 23:59N 36°35' W 008°33'1516.5
2018-May-20 23:04N 36°31' W 008°15'316.6
2018-May-20 22:54N 36°30' W 008°12'716.5
2018-May-20 22:28N 36°27' W 008°03'2516.5
2018-May-20 20:58N 36°19' W 007°34'8016.4
2018-May-20 16:04N 35°58' W 005°58'217.2
2018-May-20 15:59N 35°58' W 005°56'917.3
2018-May-20 15:29N 35°57' W 005°46'817.0
2018-May-20 15:00N 35°58' W 005°36'816.3
2018-May-20 14:30N 35°59' W 005°26'815.7
2018-May-20 14:01N 36°01' W 005°17'916.8
2018-May-20 13:30N 36°03' W 005°06'20416.2
2018-May-20 00:55N 37°12' W 001°07'717.2
2018-May-20 00:30N 37°17' W 000°60'917.1
2018-May-20 00:00N 37°22' W 000°52'816.9
2018-May-19 23:30N 37°28' W 000°44'816.2
2018-May-19 23:00N 37°33' W 000°36'815.5
2018-May-19 22:30N 37°38' W 000°29'1415.6
2018-May-19 21:36N 37°50' W 000°18'116.1
2018-May-19 21:30N 37°51' W 000°18'816.2
2018-May-19 21:00N 37°58' W 000°12'19616.9
2018-May-19 09:26N 40°49' E 001°51'716.2
2018-May-19 09:00N 40°55' E 001°55'815.6
2018-May-19 08:30N 41°02' E 002°01'510.3
2018-May-19 08:00N 41°06' E 002°04'816.1
2018-May-19 07:30N 41°14' E 002°08'612.7
2018-May-19 07:01N 41°20' E 002°10'1 1.8
2018-May-19 06:30N 41°20' E 002°09'0 0.0
2018-May-19 06:00N 41°20' E 002°09'0 0.0
2018-May-19 05:30N 41°20' E 002°09'0 0.0
2018-May-19 05:00N 41°20' E 002°09'0 0.0
2018-May-19 04:30N 41°20' E 002°09'0 0.0
2018-May-19 04:00N 41°20' E 002°09'0 0.0
2018-May-19 03:30N 41°20' E 002°09'0 0.0
2018-May-19 03:00N 41°20' E 002°09'0 0.0
2018-May-19 02:30N 41°20' E 002°09'0 0.0
2018-May-19 02:00N 41°20' E 002°09'0 0.0
2018-May-19 01:30N 41°20' E 002°09'0 0.0
2018-May-19 01:00N 41°20' E 002°09'0 0.0
2018-May-19 00:30N 41°20' E 002°09'0 0.0
2018-May-19 00:00N 41°20' E 002°09'0 0.0
2018-May-18 23:30N 41°20' E 002°09'0 0.0
2018-May-18 23:00N 41°20' E 002°09'0 0.0
2018-May-18 22:30N 41°20' E 002°09'0 0.0
2018-May-18 22:00N 41°20' E 002°09'0 0.0
2018-May-18 21:30N 41°20' E 002°09'0 0.0
2018-May-18 21:00N 41°20' E 002°09'0 0.0
2018-May-18 20:30N 41°20' E 002°09'0 0.0
2018-May-18 20:00N 41°20' E 002°09'0 0.0
2018-May-18 19:30N 41°20' E 002°09'0 0.0
2018-May-18 19:00N 41°20' E 002°09'0 0.0
2018-May-18 18:30N 41°20' E 002°09'0 0.0
2018-May-18 18:00N 41°20' E 002°09'0 0.0
2018-May-18 17:30N 41°20' E 002°09'0 0.0
2018-May-18 17:00N 41°20' E 002°09'0 0.0
2018-May-18 16:30N 41°20' E 002°09'0 0.0
2018-May-18 16:00N 41°20' E 002°09'0 0.0
2018-May-18 15:30N 41°20' E 002°09'0 0.0
2018-May-18 15:00N 41°20' E 002°09'0 0.0
2018-May-18 14:30N 41°20' E 002°09'0 0.0
2018-May-18 14:00N 41°20' E 002°09'0 0.0
2018-May-18 13:30N 41°20' E 002°09'0 0.0
2018-May-18 13:00N 41°20' E 002°09'0 0.0
2018-May-18 12:30N 41°20' E 002°09'0 0.0
2018-May-18 12:00N 41°20' E 002°09'0 0.0
2018-May-18 11:29N 41°20' E 002°09'0 0.0
2018-May-18 10:59N 41°20' E 002°09'0 0.0
2018-May-18 10:29N 41°20' E 002°09'0 0.0
2018-May-18 09:59N 41°20' E 002°09'0 0.0
2018-May-18 09:29N 41°20' E 002°09'0 0.0
2018-May-18 08:59N 41°20' E 002°09'0 0.0
2018-May-18 07:26N 41°20' E 002°09'0 0.0
2018-May-18 06:59N 41°20' E 002°09'0 0.0
2018-May-18 06:29N 41°20' E 002°09'0 0.0
2018-May-18 05:59N 41°20' E 002°09'0 0.0
2018-May-18 05:29N 41°20' E 002°09'0 0.0
2018-May-18 04:59N 41°20' E 002°09'0 0.0
2018-May-18 04:29N 41°20' E 002°09'0 0.0
2018-May-18 03:59N 41°20' E 002°09'0 0.4
2018-May-18 03:30N 41°20' E 002°09'2 3.3
2018-May-18 03:00N 41°19' E 002°10'3 6.9
2018-May-18 02:30N 41°16' E 002°12'2 4.6
2018-May-18 02:00N 41°13' E 002°13'612.1
2018-May-18 01:30N 41°07' E 002°14'2 4.6
2018-May-18 00:59N 41°05' E 002°14'1 1.5
2018-May-18 00:30N 41°06' E 002°14'1 1.4
2018-May-18 00:00N 41°06' E 002°15'1 1.5
2018-May-17 23:30N 41°07' E 002°15'1 1.4
2018-May-17 23:00N 41°08' E 002°15'1 1.4
2018-May-17 22:30N 41°08' E 002°14'1 1.2
2018-May-17 22:00N 41°09' E 002°14'0 0.9
2018-May-17 21:30N 41°10' E 002°14'0 0.6
2018-May-17 21:00N 41°10' E 002°14'0 0.3
2018-May-17 20:30N 41°10' E 002°14'0 0.2
2018-May-17 20:00N 41°10' E 002°14'0 0.1
2018-May-17 19:30N 41°10' E 002°14'1 1.1
2018-May-17 19:00N 41°10' E 002°14'5 9.5
2018-May-17 18:30N 41°06' E 002°10'816.1
2018-May-17 18:00N 40°59' E 002°04'3216.6
2018-May-17 16:03N 40°31' E 001°41'216.5
2018-May-17 15:56N 40°30' E 001°40'3216.2
2018-May-17 13:58N 40°02' E 001°20'816.3
2018-May-17 13:29N 39°55' E 001°16'816.3
2018-May-17 13:00N 39°48' E 001°11'13616.2
2018-May-17 04:36N 37°50' W 000°16'317.6
2018-May-17 04:27N 37°47' W 000°18'817.8
2018-May-17 04:00N 37°41' W 000°24'917.8
2018-May-17 03:30N 37°34' W 000°30'816.8
2018-May-17 03:00N 37°28' W 000°38'816.4
2018-May-17 02:30N 37°23' W 000°46'816.4
2018-May-17 02:00N 37°17' W 000°53'916.4
2018-May-17 01:29N 37°12' W 001°02'21315.8
2018-May-16 11:59N 36°00' W 005°12'817.7
2018-May-16 11:30N 35°59' W 005°22'13915.2
2018-May-16 02:20N 36°20' W 008°12'616.3
2018-May-16 01:57N 36°21' W 008°20'716.0
2018-May-16 01:30N 36°23' W 008°28'2416.1
2018-May-16 00:02N 36°30' W 008°56'116.1
2018-May-16 00:00N 36°30' W 008°57'816.0
2018-May-15 23:30N 36°31' W 009°07'815.7
2018-May-15 23:00N 36°34' W 009°16'815.5
2018-May-15 22:30N 36°38' W 009°24'815.7
2018-May-15 22:00N 36°44' W 009°30'815.4
2018-May-15 21:30N 36°51' W 009°34'816.4
2018-May-15 21:00N 36°59' W 009°37'916.4
2018-May-15 20:29N 37°08' W 009°39'816.3
2018-May-15 20:01N 37°15' W 009°41'816.5
2018-May-15 19:30N 37°23' W 009°43'816.4
2018-May-15 19:00N 37°31' W 009°46'816.3
2018-May-15 18:30N 37°39' W 009°48'816.4
2018-May-15 18:00N 37°47' W 009°50'816.4
2018-May-15 17:30N 37°55' W 009°53'816.8
2018-May-15 17:00N 38°03' W 009°55'816.5
2018-May-15 16:30N 38°11' W 009°57'816.9
2018-May-15 16:00N 38°20' W 009°60'816.7
2018-May-15 15:31N 38°28' W 010°02'816.9
2018-May-15 15:00N 38°36' W 010°04'917.7
2018-May-15 14:30N 38°45' W 010°05'917.4
2018-May-15 14:00N 38°54' W 010°05'816.5
2018-May-15 13:31N 39°02' W 010°06'816.1
2018-May-15 13:00N 39°10' W 010°06'816.3
2018-May-15 12:30N 39°18' W 010°06'916.4
2018-May-15 11:59N 39°27' W 010°06'816.5
2018-May-15 11:29N 39°35' W 010°06'1316.1
2018-May-15 10:42N 39°48' W 010°06'1616.1
2018-May-15 09:41N 40°04' W 010°06'  
Track history (hours):
 
Tides and Currents Weather Stations Pressure Air Temp Water Temp Dewpoint Dewpoint Depression Visibility Wind Speed Wind Dir Waves Ship Positions

Aquarius Ace

Last reported at 2018-May-24 14:00 UTC. Time now 2018-May-24 14:07 UTC.
Position N 51°46' E 001°49'.

Length 174 m; draft 6.9 m.

Type: Cargo ship. MMSI: 354123000.

Date/timePositionNaut miles runAvg speedWind from/ knotsBaromVisibWave heightAir tempDewpointWater temp
2018-May-24 14:00N 51°46' E 001°49'815.6
2018-May-24 13:30N 51°38' E 001°49'24 1.8
2018-May-23 23:59N 51°29' E 001°12'714.1
2018-May-23 23:30N 51°28' E 001°23'510.1
2018-May-23 23:00N 51°25' E 001°29'2 4.6
2018-May-23 22:30N 51°23' E 001°32'3 6.8
2018-May-23 22:00N 51°21' E 001°35'3 6.6
2018-May-23 21:30N 51°18' E 001°37'815.7
2018-May-23 21:01N 51°10' E 001°36'713.2
2018-May-23 20:30N 51°03' E 001°37'816.6
2018-May-23 20:00N 50°58' E 001°28'916.3
2018-May-23 19:27N 50°49' E 001°23'815.5
2018-May-23 18:57N 50°42' E 001°18'915.8
2018-May-23 18:23N 50°36' E 001°08'615.5
2018-May-23 18:00N 50°33' E 000°60'815.6
2018-May-23 17:31N 50°30' E 000°48'816.0
2018-May-23 16:59N 50°28' E 000°36'816.5
2018-May-23 16:29N 50°26' E 000°23'816.8
2018-May-23 16:00N 50°24' E 000°11'816.9
2018-May-23 15:30N 50°21' W 000°02'917.4
2018-May-23 15:01N 50°19' W 000°15'917.6
2018-May-23 14:29N 50°16' W 000°29'917.9
2018-May-23 14:00N 50°13' W 000°41'917.7
2018-May-23 13:30N 50°11' W 000°55'917.6
2018-May-23 13:01N 50°09' W 001°08'917.2
2018-May-23 12:30N 50°07' W 001°21'816.9
2018-May-23 12:01N 50°05' W 001°34'816.4
2018-May-23 11:30N 50°03' W 001°46'816.0
2018-May-23 11:00N 50°00' W 001°58'815.5
2018-May-23 10:30N 49°58' W 002°09'814.9
2018-May-23 09:57N 49°55' W 002°22'614.3
2018-May-23 09:30N 49°53' W 002°31'914.2
2018-May-23 08:52N 49°51' W 002°45'614.3
2018-May-23 08:27N 49°50' W 002°54'714.3
2018-May-23 07:59N 49°47' W 003°03'714.6
2018-May-23 07:30N 49°43' W 003°12'814.8
2018-May-23 06:59N 49°39' W 003°22'914.9
2018-May-23 06:21N 49°34' W 003°35'1514.9
2018-May-23 05:21N 49°27' W 003°54'2414.8
2018-May-23 03:42N 49°14' W 004°27'314.7
2018-May-23 03:30N 49°13' W 004°30'714.7
2018-May-23 03:00N 49°09' W 004°40'714.6
2018-May-23 02:30N 49°05' W 004°49'714.8
2018-May-23 02:00N 49°01' W 004°59'815.2
2018-May-23 01:30N 48°57' W 005°09'815.3
2018-May-23 01:00N 48°53' W 005°18'815.4
2018-May-23 00:30N 48°48' W 005°28'815.3
2018-May-23 00:00N 48°43' W 005°37'815.5
2018-May-22 23:31N 48°37' W 005°42'815.7
2018-May-22 23:00N 48°29' W 005°48'916.3
2018-May-22 22:28N 48°22' W 005°54'916.3
2018-May-22 21:56N 48°14' W 006°00'716.3
2018-May-22 21:30N 48°08' W 006°05'1016.4
2018-May-22 20:52N 47°59' W 006°13'52516.3
2018-May-21 12:36N 39°38' W 009°50'617.1
2018-May-21 12:17N 39°32' W 009°50'517.2
2018-May-21 12:00N 39°27' W 009°51'816.9
2018-May-21 11:30N 39°19' W 009°51'816.5
2018-May-21 11:00N 39°11' W 009°51'816.5
2018-May-21 10:30N 39°02' W 009°51'816.6
2018-May-21 10:00N 38°54' W 009°51'816.4
2018-May-21 09:30N 38°46' W 009°51'816.5
2018-May-21 09:00N 38°38' W 009°49'816.8
2018-May-21 08:31N 38°30' W 009°47'816.9
2018-May-21 08:00N 38°21' W 009°44'816.7
2018-May-21 07:30N 38°13' W 009°42'816.9
2018-May-21 07:00N 38°05' W 009°39'816.7
2018-May-21 06:30N 37°57' W 009°36'816.8
2018-May-21 06:00N 37°49' W 009°34'816.6
2018-May-21 05:30N 37°41' W 009°32'1016.6
2018-May-21 04:53N 37°31' W 009°29'616.3
2018-May-21 04:29N 37°24' W 009°27'816.3
2018-May-21 03:58N 37°16' W 009°25'716.1
2018-May-21 03:30N 37°09' W 009°23'816.2
2018-May-21 03:00N 37°01' W 009°20'915.9
2018-May-21 02:26N 36°52' W 009°17'716.1
2018-May-21 02:00N 36°47' W 009°11'1016.0
2018-May-21 01:21N 36°42' W 008°59'616.3
2018-May-21 01:00N 36°41' W 008°53'916.4
2018-May-21 00:26N 36°38' W 008°42'716.5
2018-May-20 23:59N 36°35' W 008°33'1516.5
2018-May-20 23:04N 36°31' W 008°15'316.6
2018-May-20 22:54N 36°30' W 008°12'716.5
2018-May-20 22:28N 36°27' W 008°03'2516.5
2018-May-20 20:58N 36°19' W 007°34'8016.4
2018-May-20 16:04N 35°58' W 005°58'217.2
2018-May-20 15:59N 35°58' W 005°56'917.3
2018-May-20 15:29N 35°57' W 005°46'817.0
2018-May-20 15:00N 35°58' W 005°36'816.3
2018-May-20 14:30N 35°59' W 005°26'815.7
2018-May-20 14:01N 36°01' W 005°17'916.8
2018-May-20 13:30N 36°03' W 005°06'20416.2
2018-May-20 00:55N 37°12' W 001°07'717.2
2018-May-20 00:30N 37°17' W 000°60'917.1
2018-May-20 00:00N 37°22' W 000°52'816.9
2018-May-19 23:30N 37°28' W 000°44'816.2
2018-May-19 23:00N 37°33' W 000°36'815.5
2018-May-19 22:30N 37°38' W 000°29'1415.6
2018-May-19 21:36N 37°50' W 000°18'116.1
2018-May-19 21:30N 37°51' W 000°18'816.2
2018-May-19 21:00N 37°58' W 000°12'19616.9
2018-May-19 09:26N 40°49' E 001°51'716.2
2018-May-19 09:00N 40°55' E 001°55'815.6
2018-May-19 08:30N 41°02' E 002°01'510.3
2018-May-19 08:00N 41°06' E 002°04'816.1
2018-May-19 07:30N 41°14' E 002°08'612.7
2018-May-19 07:01N 41°20' E 002°10'1 1.8
2018-May-19 06:30N 41°20' E 002°09'0 0.0
2018-May-19 06:00N 41°20' E 002°09'0 0.0
2018-May-19 05:30N 41°20' E 002°09'0 0.0
2018-May-19 05:00N 41°20' E 002°09'0 0.0
2018-May-19 04:30N 41°20' E 002°09'0 0.0
2018-May-19 04:00N 41°20' E 002°09'0 0.0
2018-May-19 03:30N 41°20' E 002°09'0 0.0
2018-May-19 03:00N 41°20' E 002°09'0 0.0
2018-May-19 02:30N 41°20' E 002°09'0 0.0
2018-May-19 02:00N 41°20' E 002°09'0 0.0
2018-May-19 01:30N 41°20' E 002°09'0 0.0
2018-May-19 01:00N 41°20' E 002°09'0 0.0
2018-May-19 00:30N 41°20' E 002°09'0 0.0
2018-May-19 00:00N 41°20' E 002°09'0 0.0
2018-May-18 23:30N 41°20' E 002°09'0 0.0
2018-May-18 23:00N 41°20' E 002°09'0 0.0
2018-May-18 22:30N 41°20' E 002°09'0 0.0
2018-May-18 22:00N 41°20' E 002°09'0 0.0
2018-May-18 21:30N 41°20' E 002°09'0 0.0
2018-May-18 21:00N 41°20' E 002°09'0 0.0
2018-May-18 20:30N 41°20' E 002°09'0 0.0
2018-May-18 20:00N 41°20' E 002°09'0 0.0
2018-May-18 19:30N 41°20' E 002°09'0 0.0
2018-May-18 19:00N 41°20' E 002°09'0 0.0
2018-May-18 18:30N 41°20' E 002°09'0 0.0
2018-May-18 18:00N 41°20' E 002°09'0 0.0
2018-May-18 17:30N 41°20' E 002°09'0 0.0
2018-May-18 17:00N 41°20' E 002°09'0 0.0
2018-May-18 16:30N 41°20' E 002°09'0 0.0
2018-May-18 16:00N 41°20' E 002°09'0 0.0
2018-May-18 15:30N 41°20' E 002°09'0 0.0
2018-May-18 15:00N 41°20' E 002°09'0 0.0
2018-May-18 14:30N 41°20' E 002°09'0 0.0
2018-May-18 14:00N 41°20' E 002°09'0 0.0
2018-May-18 13:30N 41°20' E 002°09'0 0.0
2018-May-18 13:00N 41°20' E 002°09'0 0.0
2018-May-18 12:30N 41°20' E 002°09'0 0.0
2018-May-18 12:00N 41°20' E 002°09'0 0.0
2018-May-18 11:29N 41°20' E 002°09'0 0.0
2018-May-18 10:59N 41°20' E 002°09'0 0.0
2018-May-18 10:29N 41°20' E 002°09'0 0.0
2018-May-18 09:59N 41°20' E 002°09'0 0.0
2018-May-18 09:29N 41°20' E 002°09'0 0.0
2018-May-18 08:59N 41°20' E 002°09'0 0.0
2018-May-18 07:26N 41°20' E 002°09'0 0.0
2018-May-18 06:59N 41°20' E 002°09'0 0.0
2018-May-18 06:29N 41°20' E 002°09'0 0.0
2018-May-18 05:59N 41°20' E 002°09'0 0.0
2018-May-18 05:29N 41°20' E 002°09'0 0.0
2018-May-18 04:59N 41°20' E 002°09'0 0.0
2018-May-18 04:29N 41°20' E 002°09'0 0.0
2018-May-18 03:59N 41°20' E 002°09'0 0.4
2018-May-18 03:30N 41°20' E 002°09'2 3.3
2018-May-18 03:00N 41°19' E 002°10'3 6.9
2018-May-18 02:30N 41°16' E 002°12'2 4.6
2018-May-18 02:00N 41°13' E 002°13'612.1
2018-May-18 01:30N 41°07' E 002°14'2 4.6
2018-May-18 00:59N 41°05' E 002°14'1 1.5
2018-May-18 00:30N 41°06' E 002°14'1 1.4
2018-May-18 00:00N 41°06' E 002°15'1 1.5
2018-May-17 23:30N 41°07' E 002°15'1 1.4
2018-May-17 23:00N 41°08' E 002°15'1 1.4
2018-May-17 22:30N 41°08' E 002°14'1 1.2
2018-May-17 22:00N 41°09' E 002°14'0 0.9
2018-May-17 21:30N 41°10' E 002°14'0 0.6
2018-May-17 21:00N 41°10' E 002°14'0 0.3
2018-May-17 20:30N 41°10' E 002°14'0 0.2
2018-May-17 20:00N 41°10' E 002°14'0 0.1
2018-May-17 19:30N 41°10' E 002°14'1 1.1
2018-May-17 19:00N 41°10' E 002°14'5 9.5
2018-May-17 18:30N 41°06' E 002°10'816.1
2018-May-17 18:00N 40°59' E 002°04'3216.6
2018-May-17 16:03N 40°31' E 001°41'216.5
2018-May-17 15:56N 40°30' E 001°40'3216.2
2018-May-17 13:58N 40°02' E 001°20'816.3
2018-May-17 13:29N 39°55' E 001°16'816.3
2018-May-17 13:00N 39°48' E 001°11'13616.2
2018-May-17 04:36N 37°50' W 000°16'317.6
2018-May-17 04:27N 37°47' W 000°18'817.8
2018-May-17 04:00N 37°41' W 000°24'917.8
2018-May-17 03:30N 37°34' W 000°30'816.8
2018-May-17 03:00N 37°28' W 000°38'816.4
2018-May-17 02:30N 37°23' W 000°46'816.4
2018-May-17 02:00N 37°17' W 000°53'916.4
2018-May-17 01:29N 37°12' W 001°02'21315.8
2018-May-16 11:59N 36°00' W 005°12'817.7
2018-May-16 11:30N 35°59' W 005°22'13915.2
2018-May-16 02:20N 36°20' W 008°12'616.3
2018-May-16 01:57N 36°21' W 008°20'716.0
2018-May-16 01:30N 36°23' W 008°28'2416.1
2018-May-16 00:02N 36°30' W 008°56'116.1
2018-May-16 00:00N 36°30' W 008°57'816.0
2018-May-15 23:30N 36°31' W 009°07'815.7
2018-May-15 23:00N 36°34' W 009°16'815.5
2018-May-15 22:30N 36°38' W 009°24'815.7
2018-May-15 22:00N 36°44' W 009°30'815.4
2018-May-15 21:30N 36°51' W 009°34'816.4
2018-May-15 21:00N 36°59' W 009°37'916.4
2018-May-15 20:29N 37°08' W 009°39'816.3
2018-May-15 20:01N 37°15' W 009°41'816.5
2018-May-15 19:30N 37°23' W 009°43'816.4
2018-May-15 19:00N 37°31' W 009°46'816.3
2018-May-15 18:30N 37°39' W 009°48'816.4
2018-May-15 18:00N 37°47' W 009°50'816.4
2018-May-15 17:30N 37°55' W 009°53'816.8
2018-May-15 17:00N 38°03' W 009°55'816.5
2018-May-15 16:30N 38°11' W 009°57'816.9
2018-May-15 16:00N 38°20' W 009°60'816.7
2018-May-15 15:31N 38°28' W 010°02'816.9
2018-May-15 15:00N 38°36' W 010°04'917.7
2018-May-15 14:30N 38°45' W 010°05'917.4
2018-May-15 14:00N 38°54' W 010°05'816.5
2018-May-15 13:31N 39°02' W 010°06'816.1
2018-May-15 13:00N 39°10' W 010°06'816.3
2018-May-15 12:30N 39°18' W 010°06'916.4
2018-May-15 11:59N 39°27' W 010°06'816.5
2018-May-15 11:29N 39°35' W 010°06'1316.1
2018-May-15 10:42N 39°48' W 010°06'1616.1
2018-May-15 09:41N 40°04' W 010°06'  

Dump ship's entire track history